Balatonboglar, Hungary
Current Conditions -  °F | °C
As of 9:45 AM on Friday 24 Oct 2014 (Local Time) from LHSM Reporting Station
Light Rain Light Rain  
Wind Chill: 36°   Ceiling: 8300
Heat Index: 45°   Visibility: 6mi
Dew Point: 39°   Wind: 22mph
Humidity: 81%   Direction: 350°N
Pressure: 30"   Gusts: 33mph
Location:  46.77°N, 17.67°E
Report Text: LHSM 240745Z 35019G29KT 9999 -RA FEW015 OVC083 07/04 Q1016 NOSIG
Loading
Personal Weather Stations






























Interactive Weather Map
Tropical Storm Tracking
New forecast layout! Learn more

10-Day Weather Forecast

Advertisements
Track Severe Weather on mobile